Time;durP1;ratioP1;P1;durP2;ratioP2;P2;SDS_P1;SDS_P2;PMS_P1;PMS_P2;Temp;Humidity;BMP_temperature;BMP_pressure;BME280_temperature;BME280_humidity;BME280_pressure;Samples;Min_cycle;Max_cycle;Signal;HPM_P1;HPM_P2
2023/07/28 00:00:53;;;;;;;26.95;13.00;;;;;;;;;;6213513;23;20023;-66
2023/07/28 00:03:19;;;;;;;25.73;12.60;;;;;;;;;;6213455;23;20051;-66
2023/07/28 00:05:45;;;;;;;26.60;13.23;;;;;;;;;;6213395;23;20019;-66
2023/07/28 00:08:11;;;;;;;26.73;12.75;;;;;;;;;;6213330;23;20047;-66
2023/07/28 00:10:42;;;;;;;22.75;12.27;;;;;;;;;;6187114;23;20024;-66
2023/07/28 00:13:08;;;;;;;26.90;12.75;;;;;;;;;;6213311;23;20062;-66
2023/07/28 00:15:34;;;;;;;26.35;12.48;;;;;;;;;;6161801;23;20016;-66
2023/07/28 00:18:01;;;;;;;26.63;13.70;;;;;;;;;;6213601;23;20392;-66
2023/07/28 00:20:27;;;;;;;25.65;12.52;;;;;;;;;;6213108;23;20020;-66
2023/07/28 00:22:53;;;;;;;27.00;12.52;;;;;;;;;;6213522;23;20012;-66
2023/07/28 00:25:20;;;;;;;29.35;13.35;;;;;;;;;;6213567;23;20095;-66
2023/07/28 00:27:46;;;;;;;30.70;13.25;;;;;;;;;;6213120;23;20015;-66
2023/07/28 00:30:12;;;;;;;27.85;13.82;;;;;;;;;;6213601;23;20012;-66
2023/07/28 00:32:38;;;;;;;35.28;14.95;;;;;;;;;;6213461;23;20019;-66
2023/07/28 00:35:05;;;;;;;24.98;13.00;;;;;;;;;;6213145;23;20106;-66
2023/07/28 00:37:31;;;;;;;29.50;13.35;;;;;;;;;;6213002;23;20024;-66
2023/07/28 00:39:57;;;;;;;27.55;13.73;;;;;;;;;;6213303;23;20022;-66
2023/07/28 00:42:23;;;;;;;27.05;13.52;;;;;;;;;;6212622;23;20012;-66
2023/07/28 00:44:49;;;;;;;30.95;15.05;;;;;;;;;;6213594;23;20009;-66
2023/07/28 00:47:15;;;;;;;26.58;13.52;;;;;;;;;;6213337;23;20012;-66
2023/07/28 00:49:41;;;;;;;31.67;14.35;;;;;;;;;;6213031;23;20019;-66
2023/07/28 00:52:10;;;;;;;31.67;13.65;;;;;;;;;;6213138;23;20020;-66
2023/07/28 00:54:36;;;;;;;27.42;13.32;;;;;;;;;;6213174;23;20016;-66
2023/07/28 00:57:03;;;;;;;24.80;13.00;;;;;;;;;;6212400;23;20020;-66
2023/07/28 00:59:29;;;;;;;26.88;13.77;;;;;;;;;;6186455;23;20013;-66
2023/07/28 01:01:55;;;;;;;33.90;13.98;;;;;;;;;;6213206;23;20012;-66
2023/07/28 01:04:21;;;;;;;39.83;15.00;;;;;;;;;;6212089;23;20092;-66
2023/07/28 01:07:06;;;;;;;29.30;13.85;;;;;;;;;;6212192;23;20028;-66
2023/07/28 01:09:40;;;;;;;38.15;16.23;;;;;;;;;;6213215;23;20019;-66
2023/07/28 01:12:11;;;;;;;38.20;14.32;;;;;;;;;;6212565;23;20012;-66
2023/07/28 01:14:37;;;;;;;36.78;15.52;;;;;;;;;;6213220;23;20071;-66
2023/07/28 01:17:03;;;;;;;30.67;16.52;;;;;;;;;;6213120;23;20009;-66
2023/07/28 01:19:30;;;;;;;42.88;16.88;;;;;;;;;;6212086;23;20063;-66
2023/07/28 01:22:13;;;;;;;40.13;16.70;;;;;;;;;;6212945;23;20012;-66
2023/07/28 01:25:03;;;;;;;42.25;17.25;;;;;;;;;;6213083;23;20023;-66
2023/07/28 01:27:29;;;;;;;38.45;15.98;;;;;;;;;;6201138;23;20505;-66
2023/07/28 01:29:56;;;;;;;42.38;18.35;;;;;;;;;;6212921;23;20012;-66
2023/07/28 01:32:22;;;;;;;32.80;16.05;;;;;;;;;;6212490;23;20013;-66
2023/07/28 01:34:48;;;;;;;38.58;14.65;;;;;;;;;;6212392;23;20013;-66
2023/07/28 01:37:14;;;;;;;37.00;16.58;;;;;;;;;;6212407;23;20024;-66
2023/07/28 01:39:40;;;;;;;38.65;15.68;;;;;;;;;;6212916;23;20075;-66
2023/07/28 01:42:06;;;;;;;38.50;16.95;;;;;;;;;;6212285;23;20016;-66
2023/07/28 01:44:32;;;;;;;41.63;17.52;;;;;;;;;;6212769;23;20325;-66
2023/07/28 01:46:58;;;;;;;42.05;17.05;;;;;;;;;;6212631;23;20043;-66
2023/07/28 01:49:24;;;;;;;32.67;16.65;;;;;;;;;;6212373;23;20020;-66
2023/07/28 01:51:50;;;;;;;40.90;18.58;;;;;;;;;;6212666;23;20451;-66
2023/07/28 01:54:16;;;;;;;42.45;18.50;;;;;;;;;;6212718;23;20013;-66
2023/07/28 01:56:42;;;;;;;46.90;18.35;;;;;;;;;;6212185;23;20052;-66
2023/07/28 01:59:08;;;;;;;44.33;19.05;;;;;;;;;;6212707;23;20017;-66
2023/07/28 02:01:35;;;;;;;48.45;17.17;;;;;;;;;;6212639;23;20024;-66
2023/07/28 02:04:01;;;;;;;41.67;18.55;;;;;;;;;;6212083;23;20013;-66
2023/07/28 02:06:27;;;;;;;38.05;19.40;;;;;;;;;;6185839;23;20070;-66
2023/07/28 02:08:53;;;;;;;36.35;17.20;;;;;;;;;;6212686;23;20455;-66
2023/07/28 02:11:19;;;;;;;42.47;17.17;;;;;;;;;;6212355;23;20087;-66
2023/07/28 02:13:45;;;;;;;38.92;17.67;;;;;;;;;;6212827;23;20048;-66
2023/07/28 02:16:11;;;;;;;34.63;16.90;;;;;;;;;;6212238;23;20012;-66
2023/07/28 02:18:37;;;;;;;39.80;17.65;;;;;;;;;;6213166;23;20016;-66
2023/07/28 02:21:03;;;;;;;34.40;17.27;;;;;;;;;;6214545;23;20016;-66
2023/07/28 02:23:30;;;;;;;35.47;16.83;;;;;;;;;;6214746;23;20112;-66
2023/07/28 02:25:56;;;;;;;38.80;17.33;;;;;;;;;;6214185;23;20016;-66
2023/07/28 02:28:22;;;;;;;35.00;16.33;;;;;;;;;;6214164;23;20066;-66
2023/07/28 02:30:48;;;;;;;38.50;16.52;;;;;;;;;;6214518;23;20048;-66
2023/07/28 02:33:14;;;;;;;39.85;17.60;;;;;;;;;;6213857;23;20013;-66
2023/07/28 02:35:40;;;;;;;32.65;15.95;;;;;;;;;;6214288;23;20023;-66
2023/07/28 02:38:06;;;;;;;41.03;17.17;;;;;;;;;;6214548;23;20091;-66
2023/07/28 02:40:33;;;;;;;27.85;16.10;;;;;;;;;;6213804;23;20016;-66
2023/07/28 02:42:59;;;;;;;37.75;17.20;;;;;;;;;;6187522;23;20012;-66
2023/07/28 02:45:25;;;;;;;33.03;16.90;;;;;;;;;;6214304;23;20309;-66
2023/07/28 02:47:51;;;;;;;42.08;17.55;;;;;;;;;;6214093;23;20464;-66
2023/07/28 02:50:17;;;;;;;37.97;17.55;;;;;;;;;;6214383;23;20444;-66
2023/07/28 02:52:43;;;;;;;30.30;16.50;;;;;;;;;;6214471;23;20016;-66
2023/07/28 02:55:10;;;;;;;35.33;17.33;;;;;;;;;;6213901;23;20013;-66
2023/07/28 02:57:36;;;;;;;42.88;18.13;;;;;;;;;;6214387;23;20019;-66
2023/07/28 03:00:02;;;;;;;37.28;17.65;;;;;;;;;;6187321;23;20012;-66
2023/07/28 03:02:29;;;;;;;33.25;15.85;;;;;;;;;;6213775;23;20009;-66
2023/07/28 03:04:55;;;;;;;33.35;17.40;;;;;;;;;;6214309;23;20019;-66
2023/07/28 03:07:21;;;;;;;35.38;17.80;;;;;;;;;;6214273;23;20435;-66
2023/07/28 03:09:47;;;;;;;35.70;17.42;;;;;;;;;;6214088;23;20013;-66
2023/07/28 03:12:13;;;;;;;37.35;16.70;;;;;;;;;;6214265;23;20023;-66
2023/07/28 03:14:39;;;;;;;39.85;17.88;;;;;;;;;;6214365;23;20017;-66
2023/07/28 03:17:05;;;;;;;34.03;17.33;;;;;;;;;;6213836;23;20092;-66
2023/07/28 03:19:31;;;;;;;38.00;17.75;;;;;;;;;;6213708;23;20023;-66
2023/07/28 03:21:57;;;;;;;37.70;18.02;;;;;;;;;;6214241;23;20087;-66
2023/07/28 03:24:23;;;;;;;43.33;18.23;;;;;;;;;;6213667;23;20013;-66
2023/07/28 03:26:49;;;;;;;35.97;16.98;;;;;;;;;;6214124;23;20013;-66
2023/07/28 03:29:15;;;;;;;33.83;17.30;;;;;;;;;;6213452;23;20017;-66
2023/07/28 03:31:41;;;;;;;37.72;17.00;;;;;;;;;;6213587;23;20507;-66
2023/07/28 03:34:07;;;;;;;38.08;16.75;;;;;;;;;;6213594;23;20044;-66
2023/07/28 03:36:33;;;;;;;36.85;17.05;;;;;;;;;;6213548;23;20063;-66
2023/07/28 03:38:59;;;;;;;33.00;18.00;;;;;;;;;;6213468;23;20043;-67
2023/07/28 03:41:25;;;;;;;41.90;17.15;;;;;;;;;;6214087;23;20048;-67
2023/07/28 03:43:51;;;;;;;40.58;17.55;;;;;;;;;;6213745;23;20036;-66
2023/07/28 03:46:17;;;;;;;33.13;15.90;;;;;;;;;;6213351;23;20009;-66
2023/07/28 03:48:43;;;;;;;32.10;16.13;;;;;;;;;;6213941;23;20336;-66
2023/07/28 03:51:09;;;;;;;30.25;17.02;;;;;;;;;;6213774;23;20022;-66
2023/07/28 03:53:35;;;;;;;34.60;17.23;;;;;;;;;;6213228;23;20091;-66
2023/07/28 03:56:02;;;;;;;40.85;18.60;;;;;;;;;;6213685;23;20012;-66
2023/07/28 03:58:28;;;;;;;40.70;17.27;;;;;;;;;;6213901;23;20035;-66
2023/07/28 04:00:54;;;;;;;43.03;16.35;;;;;;;;;;6186254;23;20605;-66
2023/07/28 04:03:20;;;;;;;33.28;15.63;;;;;;;;;;6213693;23;20078;-66
2023/07/28 04:05:46;;;;;;;34.80;17.17;;;;;;;;;;6213762;23;20071;-67
2023/07/28 04:08:12;;;;;;;33.58;16.20;;;;;;;;;;6213303;23;20013;-67
2023/07/28 04:10:38;;;;;;;40.50;15.15;;;;;;;;;;6213653;23;20066;-67
2023/07/28 04:13:05;;;;;;;36.05;17.75;;;;;;;;;;6213606;23;20021;-67
2023/07/28 04:15:31;;;;;;;30.83;16.45;;;;;;;;;;6212796;23;20027;-67
2023/07/28 04:17:57;;;;;;;41.25;17.25;;;;;;;;;;6213493;23;20017;-67
2023/07/28 04:20:23;;;;;;;36.10;16.40;;;;;;;;;;6213553;23;20066;-67
2023/07/28 04:22:49;;;;;;;31.15;16.80;;;;;;;;;;6212926;23;20024;-67
2023/07/28 04:25:15;;;;;;;39.70;17.48;;;;;;;;;;6213670;23;20013;-67
2023/07/28 04:27:41;;;;;;;35.25;18.08;;;;;;;;;;6187199;23;20044;-66
2023/07/28 04:30:07;;;;;;;44.15;18.33;;;;;;;;;;6213412;23;20012;-66
2023/07/28 04:32:33;;;;;;;33.78;16.73;;;;;;;;;;6213790;23;20012;-66
2023/07/28 04:34:59;;;;;;;39.15;17.10;;;;;;;;;;6213305;23;20023;-66
2023/07/28 04:37:25;;;;;;;35.83;17.20;;;;;;;;;;6213069;23;20024;-66
2023/07/28 04:39:51;;;;;;;37.38;16.02;;;;;;;;;;6213667;23;20568;-66
2023/07/28 04:42:17;;;;;;;34.13;19.05;;;;;;;;;;6213658;23;20019;-66
2023/07/28 04:44:45;;;;;;;37.83;16.95;;;;;;;;;;6213270;23;20048;-66
2023/07/28 04:47:11;;;;;;;31.33;17.08;;;;;;;;;;6213081;23;20511;-66
2023/07/28 04:49:37;;;;;;;35.53;18.52;;;;;;;;;;6213531;23;20052;-66
2023/07/28 04:52:03;;;;;;;40.38;17.45;;;;;;;;;;6213703;23;20013;-66
2023/07/28 04:54:30;;;;;;;33.15;17.35;;;;;;;;;;6186527;23;20009;-66
2023/07/28 04:56:56;;;;;;;38.72;17.60;;;;;;;;;;6213482;23;20568;-67
2023/07/28 04:59:22;;;;;;;35.85;18.73;;;;;;;;;;6186583;23;20020;-67
2023/07/28 05:01:48;;;;;;;37.40;18.63;;;;;;;;;;6213033;23;20048;-66
2023/07/28 05:04:14;;;;;;;43.90;18.98;;;;;;;;;;6213291;23;20067;-66
2023/07/28 05:06:40;;;;;;;40.40;18.05;;;;;;;;;;6211464;23;20012;-67
2023/07/28 05:09:06;;;;;;;35.47;17.27;;;;;;;;;;6212614;23;20021;-67
2023/07/28 05:11:32;;;;;;;31.63;16.33;;;;;;;;;;6213061;23;20618;-67
2023/07/28 05:13:58;;;;;;;32.85;17.42;;;;;;;;;;6213010;23;20048;-67
2023/07/28 05:16:24;;;;;;;36.17;17.30;;;;;;;;;;6212127;23;20024;-67
2023/07/28 05:18:50;;;;;;;30.88;17.75;;;;;;;;;;6212952;23;20016;-67
2023/07/28 05:21:16;;;;;;;32.97;17.23;;;;;;;;;;6186298;23;20079;-67
2023/07/28 05:23:42;;;;;;;32.00;18.33;;;;;;;;;;6185627;23;20023;-67
2023/07/28 05:26:08;;;;;;;34.60;17.10;;;;;;;;;;6212682;23;20044;-67
2023/07/28 05:28:35;;;;;;;39.80;18.15;;;;;;;;;;6212049;23;20043;-67
2023/07/28 05:31:05;;;;;;;32.58;17.45;;;;;;;;;;6211739;23;20023;-66
2023/07/28 05:33:31;;;;;;;42.30;19.40;;;;;;;;;;6211898;23;20059;-67
2023/07/28 05:36:04;;;;;;;41.13;18.77;;;;;;;;;;6211681;23;20027;-66
2023/07/28 05:38:30;;;;;;;32.08;17.20;;;;;;;;;;6212231;23;20027;-67
2023/07/28 05:40:57;;;;;;;30.83;17.35;;;;;;;;;;6212354;23;20463;-67
2023/07/28 05:43:23;;;;;;;36.15;17.92;;;;;;;;;;6212442;23;20013;-67
2023/07/28 05:45:49;;;;;;;32.25;17.90;;;;;;;;;;6212208;23;20116;-67
2023/07/28 05:48:15;;;;;;;35.63;17.38;;;;;;;;;;6212536;23;20016;-67
2023/07/28 05:50:41;;;;;;;35.20;17.42;;;;;;;;;;6212529;23;20012;-66
2023/07/28 05:53:07;;;;;;;33.22;18.33;;;;;;;;;;6213439;23;20028;-67
2023/07/28 05:55:33;;;;;;;34.85;19.05;;;;;;;;;;6213192;23;20016;-67
2023/07/28 05:57:59;;;;;;;41.05;20.35;;;;;;;;;;6213766;23;20444;-68
2023/07/28 06:00:26;;;;;;;41.47;19.73;;;;;;;;;;6213227;23;20017;-66
2023/07/28 06:02:52;;;;;;;37.63;19.58;;;;;;;;;;6212925;23;20095;-67
2023/07/28 06:05:18;;;;;;;36.97;18.17;;;;;;;;;;6211998;23;20012;-67
2023/07/28 06:07:44;;;;;;;33.65;18.65;;;;;;;;;;6211823;23;20013;-67
2023/07/28 06:10:10;;;;;;;36.80;18.17;;;;;;;;;;6211990;23;20059;-67
2023/07/28 06:12:36;;;;;;;37.65;18.83;;;;;;;;;;6212125;23;20066;-67
2023/07/28 06:15:03;;;;;;;32.75;18.42;;;;;;;;;;6211690;23;20019;-67
2023/07/28 06:17:29;;;;;;;35.35;17.60;;;;;;;;;;6212381;23;20082;-68
2023/07/28 06:19:55;;;;;;;32.47;16.75;;;;;;;;;;6212432;23;20091;-67
2023/07/28 06:22:21;;;;;;;32.92;17.63;;;;;;;;;;6212279;23;20013;-67
2023/07/28 06:24:47;;;;;;;31.90;17.90;;;;;;;;;;6214259;23;20009;-67
2023/07/28 06:27:13;;;;;;;30.52;16.98;;;;;;;;;;6213805;23;20044;-66
2023/07/28 06:29:39;;;;;;;25.23;15.75;;;;;;;;;;6212060;23;20016;-66
2023/07/28 06:32:06;;;;;;;29.30;16.50;;;;;;;;;;6213155;23;20352;-66
2023/07/28 06:34:32;;;;;;;24.00;16.40;;;;;;;;;;6212661;23;20508;-65
2023/07/28 06:36:58;;;;;;;21.77;14.68;;;;;;;;;;6211532;23;20024;-66
2023/07/28 06:39:24;;;;;;;20.88;13.95;;;;;;;;;;6211980;23;20025;-66
2023/07/28 06:41:51;;;;;;;26.20;15.20;;;;;;;;;;6212008;23;20048;-66
2023/07/28 06:44:17;;;;;;;17.70;12.52;;;;;;;;;;6211745;23;20048;-67
2023/07/28 06:46:43;;;;;;;24.70;14.35;;;;;;;;;;6184951;23;20427;-67
2023/07/28 06:49:09;;;;;;;25.17;14.57;;;;;;;;;;6212663;23;20142;-67
2023/07/28 06:51:35;;;;;;;22.83;15.63;;;;;;;;;;6213165;23;20040;-66
2023/07/28 06:54:02;;;;;;;21.58;13.30;;;;;;;;;;6212333;23;20036;-67
2023/07/28 06:56:28;;;;;;;24.70;13.93;;;;;;;;;;6212151;23;20020;-67
2023/07/28 06:58:54;;;;;;;28.02;13.93;;;;;;;;;;6211380;23;20024;-68
2023/07/28 07:01:21;;;;;;;23.48;15.13;;;;;;;;;;6211754;23;20025;-66
2023/07/28 07:03:47;;;;;;;18.45;12.13;;;;;;;;;;6212197;23;20082;-66
2023/07/28 07:06:13;;;;;;;21.00;13.45;;;;;;;;;;6214168;23;20013;-65
2023/07/28 07:08:39;;;;;;;22.73;13.63;;;;;;;;;;6215501;23;20012;-66
2023/07/28 07:11:06;;;;;;;17.48;11.48;;;;;;;;;;6212740;23;20020;-68
2023/07/28 07:13:32;;;;;;;15.73;11.50;;;;;;;;;;6187917;23;20063;-66
2023/07/28 07:15:58;;;;;;;15.55;11.80;;;;;;;;;;6215176;23;20012;-66
2023/07/28 07:18:24;;;;;;;16.58;10.00;;;;;;;;;;6216502;23;20024;-66
2023/07/28 07:20:50;;;;;;;14.00;10.27;;;;;;;;;;6215098;23;20021;-65
2023/07/28 07:23:16;;;;;;;13.82;10.73;;;;;;;;;;6214218;23;20100;-68
2023/07/28 07:25:42;;;;;;;16.73;10.25;;;;;;;;;;6214077;23;20059;-65
2023/07/28 07:28:08;;;;;;;15.38;11.93;;;;;;;;;;6214350;23;20009;-65
2023/07/28 07:30:34;;;;;;;18.38;11.15;;;;;;;;;;6214131;23;20305;-65
2023/07/28 07:33:00;;;;;;;14.68;9.77;;;;;;;;;;6213989;23;20448;-67
2023/07/28 07:35:26;;;;;;;13.43;9.90;;;;;;;;;;6212494;23;20078;-68
2023/07/28 07:37:52;;;;;;;15.25;11.25;;;;;;;;;;6212922;23;20554;-67
2023/07/28 07:40:19;;;;;;;15.80;11.98;;;;;;;;;;6213443;23;20098;-67
2023/07/28 07:42:48;;;;;;;16.85;11.98;;;;;;;;;;6186097;23;20027;-67
2023/07/28 07:45:14;;;;;;;15.25;11.27;;;;;;;;;;6213283;23;20367;-67
2023/07/28 07:47:41;;;;;;;16.98;12.27;;;;;;;;;;6213012;23;20008;-67
2023/07/28 07:50:11;;;;;;;19.83;11.43;;;;;;;;;;6185366;23;20312;-67
2023/07/28 07:52:37;;;;;;;17.50;11.30;;;;;;;;;;6212033;23;20016;-67
2023/07/28 07:55:04;;;;;;;20.10;11.82;;;;;;;;;;6212959;23;20048;-65
2023/07/28 07:57:30;;;;;;;18.13;11.25;;;;;;;;;;6186061;23;20047;-64
2023/07/28 07:59:58;;;;;;;18.65;11.98;;;;;;;;;;6213275;23;20024;-67
2023/07/28 08:02:24;;;;;;;18.73;12.07;;;;;;;;;;6213536;23;20548;-66
2023/07/28 08:04:53;;;;;;;18.02;11.52;;;;;;;;;;6181760;23;20097;-67
2023/07/28 08:07:19;;;;;;;19.55;11.75;;;;;;;;;;6212198;23;20012;-67
2023/07/28 08:09:45;;;;;;;15.18;11.80;;;;;;;;;;6212404;23;20017;-67
2023/07/28 08:12:12;;;;;;;19.55;12.38;;;;;;;;;;6211797;23;20048;-66
2023/07/28 08:14:38;;;;;;;19.20;12.00;;;;;;;;;;6212429;23;20092;-66
2023/07/28 08:17:04;;;;;;;17.83;11.38;;;;;;;;;;6160206;23;20087;-68
2023/07/28 08:19:30;;;;;;;14.27;11.25;;;;;;;;;;6209681;23;20016;-66
2023/07/28 08:21:56;;;;;;;17.95;11.30;;;;;;;;;;6211805;23;20017;-66
2023/07/28 08:24:23;;;;;;;14.70;11.13;;;;;;;;;;6211595;23;20013;-66
2023/07/28 08:26:49;;;;;;;18.90;11.23;;;;;;;;;;6184363;23;20012;-66
2023/07/28 08:29:16;;;;;;;14.75;11.52;;;;;;;;;;6159833;23;20020;-68
2023/07/28 08:31:42;;;;;;;17.85;10.13;;;;;;;;;;6211415;23;20067;-68
2023/07/28 08:34:08;;;;;;;13.77;9.43;;;;;;;;;;6184896;23;20055;-67
2023/07/28 08:36:35;;;;;;;16.50;7.95;;;;;;;;;;6210786;23;20023;-68
2023/07/28 08:39:01;;;;;;;11.45;7.28;;;;;;;;;;6184447;23;20024;-67
2023/07/28 08:41:27;;;;;;;8.63;7.68;;;;;;;;;;6211781;23;20012;-66
2023/07/28 08:43:53;;;;;;;11.75;7.38;;;;;;;;;;6211242;23;20407;-67
2023/07/28 08:46:20;;;;;;;7.18;6.28;;;;;;;;;;6212079;23;20618;-67
2023/07/28 08:48:46;;;;;;;10.68;6.72;;;;;;;;;;6212629;23;20019;-69
2023/07/28 08:51:13;;;;;;;14.27;6.55;;;;;;;;;;6210981;23;20016;-66
2023/07/28 08:53:39;;;;;;;13.38;7.20;;;;;;;;;;6211399;23;20348;-65
2023/07/28 08:56:06;;;;;;;11.52;6.15;;;;;;;;;;6213318;23;20027;-65
2023/07/28 08:58:32;;;;;;;11.77;6.60;;;;;;;;;;6210440;23;20016;-66
2023/07/28 09:01:01;;;;;;;11.10;5.30;;;;;;;;;;6211757;23;20012;-65
2023/07/28 09:03:27;;;;;;;15.30;5.68;;;;;;;;;;6209720;23;20013;-65
2023/07/28 09:05:59;;;;;;;8.05;4.80;;;;;;;;;;6211174;23;20016;-67
2023/07/28 09:08:25;;;;;;;;;;;;;;;;;;6212992;23;20328;-66
2023/07/28 09:10:51;;;;;;;6.45;4.65;;;;;;;;;;6210639;23;19912;-67
2023/07/28 09:13:18;;;;;;;7.53;4.10;;;;;;;;;;6211777;23;20049;-66
2023/07/28 09:15:45;;;;;;;8.32;5.00;;;;;;;;;;6212153;23;20059;-65
2023/07/28 09:18:22;;;;;;;9.70;5.35;;;;;;;;;;6213669;23;20071;-69
2023/07/28 09:20:48;;;;;;;7.10;5.22;;;;;;;;;;6210179;23;20017;-68
2023/07/28 09:23:15;;;;;;;13.07;5.63;;;;;;;;;;6210666;23;20017;-68
2023/07/28 09:25:41;;;;;;;8.48;4.68;;;;;;;;;;6211597;23;20463;-68
2023/07/28 09:28:07;;;;;;;6.72;4.50;;;;;;;;;;6210556;23;20712;-67
2023/07/28 09:30:49;;;;;;;9.77;4.75;;;;;;;;;;6209917;23;20066;-66
2023/07/28 09:33:29;;;;;;;9.10;4.10;;;;;;;;;;6211625;23;20028;-65
2023/07/28 09:35:55;;;;;;;6.78;4.22;;;;;;;;;;6183635;23;20078;-66
2023/07/28 09:38:22;;;;;;;8.38;5.00;;;;;;;;;;6210568;23;20021;-65
2023/07/28 09:40:49;;;;;;;7.90;4.72;;;;;;;;;;6208992;23;20016;-67
2023/07/28 09:43:15;;;;;;;7.55;5.03;;;;;;;;;;6209318;23;20324;-65
2023/07/28 09:45:42;;;;;;;13.73;4.97;;;;;;;;;;6211306;23;20079;-67
2023/07/28 09:48:10;;;;;;;6.18;4.18;;;;;;;;;;6210555;23;20012;-64
2023/07/28 09:50:38;;;;;;;10.35;4.30;;;;;;;;;;6183981;23;20016;-66
2023/07/28 09:53:04;;;;;;;10.70;4.68;;;;;;;;;;6212106;23;20335;-68
2023/07/28 09:55:30;;;;;;;8.25;5.18;;;;;;;;;;6210541;23;20016;-66
2023/07/28 09:57:59;;;;;;;11.90;5.30;;;;;;;;;;6210925;23;20443;-65
2023/07/28 10:00:25;;;;;;;7.10;4.97;;;;;;;;;;6211236;23;20016;-68
2023/07/28 10:02:53;;;;;;;7.50;4.88;;;;;;;;;;6209966;23;20008;-65
2023/07/28 10:05:19;;;;;;;7.60;4.80;;;;;;;;;;6183448;23;20013;-65
2023/07/28 10:07:46;;;;;;;10.75;4.95;;;;;;;;;;6210707;23;20009;-67
2023/07/28 10:10:13;;;;;;;8.68;3.83;;;;;;;;;;6183012;23;20020;-68
2023/07/28 10:12:42;;;;;;;6.05;4.25;;;;;;;;;;6209845;23;20021;-67
2023/07/28 10:15:12;;;;;;;6.03;4.40;;;;;;;;;;6208469;23;21056;-68
2023/07/28 10:17:38;;;;;;;7.28;4.72;;;;;;;;;;6210577;23;20470;-68
2023/07/28 10:20:08;;;;;;;6.93;4.50;;;;;;;;;;6209935;23;20012;-67
2023/07/28 10:22:47;;;;;;;9.60;4.40;;;;;;;;;;6209496;23;20021;-67
2023/07/28 10:25:13;;;;;;;8.68;4.05;;;;;;;;;;6210075;23;20019;-67
2023/07/28 10:27:39;;;;;;;7.57;4.22;;;;;;;;;;6210980;23;20088;-67
2023/07/28 10:30:11;;;;;;;7.30;4.10;;;;;;;;;;6211779;23;20021;-67
2023/07/28 10:32:39;;;;;;;7.10;4.22;;;;;;;;;;6211437;23;20302;-70
2023/07/28 10:35:09;;;;;;;5.65;4.40;;;;;;;;;;6210937;23;20044;-67
2023/07/28 10:37:38;;;;;;;7.40;4.50;;;;;;;;;;6211076;23;20079;-65
2023/07/28 10:40:26;;;;;;;6.20;4.28;;;;;;;;;;6212303;23;20017;-67
2023/07/28 10:42:53;;;;;;;10.07;5.13;;;;;;;;;;6186489;23;20012;-68
2023/07/28 10:45:20;;;;;;;8.35;4.95;;;;;;;;;;6213475;23;20016;-68
2023/07/28 10:47:47;;;;;;;8.73;5.30;;;;;;;;;;6212301;23;20701;-68
2023/07/28 10:50:14;;;;;;;8.98;5.28;;;;;;;;;;6213421;23;20023;-66
2023/07/28 10:52:43;;;;;;;7.60;4.80;;;;;;;;;;6213329;23;20064;-66
2023/07/28 10:55:16;;;;;;;8.30;5.15;;;;;;;;;;6211618;23;20020;-67
2023/07/28 10:57:43;;;;;;;8.63;6.05;;;;;;;;;;6213665;23;20016;-67
2023/07/28 11:00:11;;;;;;;9.55;5.55;;;;;;;;;;6213464;23;20023;-67
2023/07/28 11:02:38;;;;;;;7.90;6.00;;;;;;;;;;6212991;23;20023;-67
2023/07/28 11:05:11;;;;;;;8.23;5.65;;;;;;;;;;6213382;23;20107;-68
2023/07/28 11:07:37;;;;;;;8.60;6.38;;;;;;;;;;6212971;23;20048;-68
2023/07/28 11:10:06;;;;;;;8.95;5.85;;;;;;;;;;6212063;23;20017;-67
2023/07/28 11:12:32;;;;;;;7.50;5.38;;;;;;;;;;6213232;23;20347;-67
2023/07/28 11:14:58;;;;;;;10.25;6.45;;;;;;;;;;6212963;23;20083;-67
2023/07/28 11:17:26;;;;;;;12.07;6.45;;;;;;;;;;6212006;23;20017;-68
2023/07/28 11:19:52;;;;;;;8.82;6.15;;;;;;;;;;6186143;23;20343;-68
2023/07/28 11:22:18;;;;;;;9.65;6.38;;;;;;;;;;6212817;23;20092;-67
2023/07/28 11:24:45;;;;;;;8.63;6.55;;;;;;;;;;6212868;23;20067;-67
2023/07/28 11:27:11;;;;;;;10.38;6.50;;;;;;;;;;6212821;23;20012;-66
2023/07/28 11:29:37;;;;;;;10.15;7.07;;;;;;;;;;6212872;23;20012;-67
2023/07/28 11:32:03;;;;;;;13.80;7.68;;;;;;;;;;6212104;23;20652;-67
2023/07/28 11:34:35;;;;;;;11.50;8.88;;;;;;;;;;6213191;23;20048;-66
2023/07/28 11:37:03;;;;;;;;;;;;;;;;;;6211462;23;20047;-67
2023/07/28 11:39:31;;;;;;;14.98;8.88;;;;;;;;;;6164460;23;19940;-68
2023/07/28 11:41:57;;;;;;;11.32;9.75;;;;;;;;;;6211308;23;20038;-67
2023/07/28 11:44:24;;;;;;;11.90;9.93;;;;;;;;;;6210701;23;20008;-68
2023/07/28 11:46:54;;;;;;;13.25;9.80;;;;;;;;;;6186331;23;20354;-67
2023/07/28 11:49:24;;;;;;;14.30;9.70;;;;;;;;;;6186131;23;20027;-67
2023/07/28 11:51:52;;;;;;;14.75;9.80;;;;;;;;;;6212785;23;20394;-67
2023/07/28 11:54:22;;;;;;;13.88;10.32;;;;;;;;;;6212417;23;20513;-66
2023/07/28 11:56:48;;;;;;;13.70;8.93;;;;;;;;;;6213087;23;20009;-66
2023/07/28 11:59:18;;;;;;;11.45;9.35;;;;;;;;;;6212720;23;20062;-66
2023/07/28 12:02:10;;;;;;;12.98;8.55;;;;;;;;;;6185323;23;20314;-66
2023/07/28 12:04:37;;;;;;;9.10;8.17;;;;;;;;;;6212489;23;20092;-67
2023/07/28 12:07:04;;;;;;;17.95;9.70;;;;;;;;;;6212745;23;20016;-67
2023/07/28 12:09:30;;;;;;;11.05;6.57;;;;;;;;;;6212721;23;20135;-68
2023/07/28 12:11:59;;;;;;;11.10;7.18;;;;;;;;;;6212034;23;20023;-69
2023/07/28 12:14:34;;;;;;;9.25;6.65;;;;;;;;;;6212808;23;20024;-67
2023/07/28 12:17:02;;;;;;;9.07;6.40;;;;;;;;;;6212107;23;20092;-67
2023/07/28 12:19:29;;;;;;;9.13;5.97;;;;;;;;;;6212997;23;20019;-67
2023/07/28 12:21:55;;;;;;;9.80;5.80;;;;;;;;;;6212441;23;20047;-67
2023/07/28 12:24:21;;;;;;;9.88;6.20;;;;;;;;;;6212328;23;20009;-68
2023/07/28 12:26:47;;;;;;;8.95;5.45;;;;;;;;;;6212695;23;20624;-69
2023/07/28 12:29:14;;;;;;;8.82;5.88;;;;;;;;;;6212813;23;20016;-70
2023/07/28 12:31:40;;;;;;;7.47;5.03;;;;;;;;;;6211421;23;20020;-69
2023/07/28 12:34:06;;;;;;;7.70;5.75;;;;;;;;;;6212292;23;20019;-68
2023/07/28 12:36:32;;;;;;;6.57;5.80;;;;;;;;;;6212103;23;20044;-68
2023/07/28 12:38:58;;;;;;;7.03;5.20;;;;;;;;;;6211774;23;20071;-68
2023/07/28 12:41:24;;;;;;;7.57;5.65;;;;;;;;;;6185623;23;20095;-67
2023/07/28 12:43:50;;;;;;;6.32;5.00;;;;;;;;;;6212702;23;20016;-66
2023/07/28 12:46:16;;;;;;;10.55;6.90;;;;;;;;;;6212195;23;20013;-67
2023/07/28 12:48:42;;;;;;;10.88;6.60;;;;;;;;;;6212103;23;20462;-67
2023/07/28 12:51:08;;;;;;;7.90;6.28;;;;;;;;;;6211970;23;20017;-67
2023/07/28 12:53:34;;;;;;;8.90;5.78;;;;;;;;;;6211850;23;20087;-67
2023/07/28 12:56:00;;;;;;;10.20;5.90;;;;;;;;;;6212610;23;20020;-68
2023/07/28 12:58:26;;;;;;;12.75;6.40;;;;;;;;;;6212685;23;20023;-68
2023/07/28 13:00:52;;;;;;;7.60;5.65;;;;;;;;;;6212197;23;20312;-67
2023/07/28 13:03:18;;;;;;;8.43;6.78;;;;;;;;;;6212511;23;20012;-67
2023/07/28 13:05:46;;;;;;;7.65;6.30;;;;;;;;;;6212549;23;20044;-67
2023/07/28 13:08:12;;;;;;;8.15;6.85;;;;;;;;;;6212275;23;20009;-67
2023/07/28 13:10:38;;;;;;;9.90;6.10;;;;;;;;;;6212521;23;20072;-67
2023/07/28 13:13:05;;;;;;;6.90;6.10;;;;;;;;;;6212449;23;20012;-67
2023/07/28 13:15:31;;;;;;;7.38;5.20;;;;;;;;;;6212333;23;20021;-68
2023/07/28 13:17:57;;;;;;;8.45;6.07;;;;;;;;;;6211927;23;20016;-68
2023/07/28 13:20:23;;;;;;;8.23;6.05;;;;;;;;;;6185080;23;20100;-68
2023/07/28 13:22:49;;;;;;;8.90;6.20;;;;;;;;;;6212187;23;20092;-67
2023/07/28 13:25:15;;;;;;;6.30;5.28;;;;;;;;;;6212205;23;20501;-67
2023/07/28 13:27:41;;;;;;;8.07;5.75;;;;;;;;;;6212281;23;20017;-66
2023/07/28 13:30:07;;;;;;;5.32;4.05;;;;;;;;;;6212937;23;20119;-67
2023/07/28 13:32:33;;;;;;;6.18;5.25;;;;;;;;;;6212154;23;20013;-67
2023/07/28 13:34:59;;;;;;;8.50;5.50;;;;;;;;;;6212549;23;20016;-67
2023/07/28 13:37:25;;;;;;;7.97;5.28;;;;;;;;;;6212386;23;20031;-68
2023/07/28 13:39:52;;;;;;;6.63;4.00;;;;;;;;;;6212315;23;20468;-68
2023/07/28 13:42:18;;;;;;;7.68;3.80;;;;;;;;;;6185711;23;20016;-68
2023/07/28 13:44:44;;;;;;;4.47;3.20;;;;;;;;;;6212520;23;20563;-68
2023/07/28 13:47:10;;;;;;;6.13;3.25;;;;;;;;;;6212118;23;20016;-68
2023/07/28 13:49:37;;;;;;;6.05;3.15;;;;;;;;;;6212824;23;20062;-68
2023/07/28 13:52:03;;;;;;;11.05;4.13;;;;;;;;;;6212547;23;20021;-68
2023/07/28 13:54:29;;;;;;;4.85;3.58;;;;;;;;;;6211826;23;20048;-68
2023/07/28 13:56:56;;;;;;;5.32;4.20;;;;;;;;;;6212621;23;20020;-68
2023/07/28 13:59:22;;;;;;;5.07;3.95;;;;;;;;;;6212293;23;20151;-68
2023/07/28 14:01:49;;;;;;;6.13;4.25;;;;;;;;;;6185023;23;20016;-68
2023/07/28 14:04:15;;;;;;;4.90;4.40;;;;;;;;;;6212502;23;20036;-68
2023/07/28 14:06:42;;;;;;;7.28;4.55;;;;;;;;;;6185697;23;20016;-68
2023/07/28 14:09:09;;;;;;;6.78;4.65;;;;;;;;;;6185297;23;20016;-68
2023/07/28 14:11:35;;;;;;;4.38;3.55;;;;;;;;;;6212402;23;20044;-68
2023/07/28 14:14:01;;;;;;;4.50;4.10;;;;;;;;;;6212204;23;20483;-68
2023/07/28 14:16:27;;;;;;;7.13;3.90;;;;;;;;;;6211789;23;20435;-68
2023/07/28 14:18:53;;;;;;;6.85;5.00;;;;;;;;;;6212465;23;20102;-68
2023/07/28 14:21:19;;;;;;;7.68;3.97;;;;;;;;;;6212378;23;20428;-68
2023/07/28 14:23:45;;;;;;;4.25;3.85;;;;;;;;;;6212021;23;20084;-68